Dallas, South Dakota
Current Conditions -  °F | °C
As of 1:53 PM on Sunday 23 Nov 2014 (Local Time) from KICR Reporting Station
Broken Clouds Broken Clouds  
Wind Chill: 35°   Ceiling: 4600
Heat Index: 45°   Visibility: 10mi
Dew Point: 26°   Wind: 29mph
Humidity: 48%   Direction: 320°NW
Pressure: 29.62"   Gusts: 37mph
Location:  43.24°N, 99.52°W
Report Text: KICR 231953Z AUTO 32025G32KT 10SM BKN046 07/M03 A2962 RMK AO2 PK WND 32038/1907 SLP039 T00721033
Loading
Personal Weather Stations






























Interactive Weather Map New forecast layout! Learn more

10-Day Weather Forecast

Advertisements
Track Severe Weather on mobile